createdAt,value
2019-01-25T00:00:13.731Z,41.08
2019-01-25T00:02:42.204Z,47.13
2019-01-25T00:05:11.311Z,39.33
2019-01-25T00:07:39.759Z,44.25
2019-01-25T00:10:09.807Z,35.88
2019-01-25T00:12:38.222Z,43.90
2019-01-25T00:15:09.662Z,40.35
2019-01-25T00:17:38.073Z,36.25
2019-01-25T00:20:11.794Z,39.42
2019-01-25T00:22:40.540Z,38.65
2019-01-25T00:25:09.767Z,34.18
2019-01-25T00:27:38.257Z,39.10
2019-01-25T00:30:18.998Z,31.37
2019-01-25T00:32:47.447Z,36.88
2019-01-25T00:35:16.009Z,34.30
2019-01-25T00:37:44.455Z,42.90
2019-01-25T00:40:16.339Z,45.17
2019-01-25T00:42:44.754Z,42.78
2019-01-25T00:45:34.039Z,42.70
2019-01-25T00:48:02.741Z,46.35
2019-01-25T00:50:31.205Z,46.40
2019-01-25T00:52:59.633Z,36.17
2019-01-25T00:55:28.373Z,48.30
2019-01-25T00:57:56.833Z,36.13
2019-01-25T01:00:26.730Z,40.92
2019-01-25T01:02:55.175Z,46.15
2019-01-25T01:05:23.927Z,41.02
2019-01-25T01:07:52.487Z,41.88
2019-01-25T01:10:22.164Z,35.23
2019-01-25T01:12:51.239Z,38.02
2019-01-25T01:15:20.335Z,41.65
2019-01-25T01:17:49.245Z,47.40
2019-01-25T01:20:19.618Z,46.60
2019-01-25T01:22:48.778Z,36.05
2019-01-25T01:25:17.368Z,40.70
2019-01-25T01:27:45.898Z,45.30
2019-01-25T01:30:17.435Z,43.08
2019-01-25T01:32:45.849Z,51.37
2019-01-25T01:35:14.348Z,51.25
2019-01-25T01:37:42.837Z,43.92
2019-01-25T01:40:21.973Z,41.88
2019-01-25T01:42:50.502Z,49.03
2019-01-25T01:45:19.237Z,48.38
2019-01-25T01:47:47.757Z,50.63
2019-01-25T01:50:18.124Z,52.83
2019-01-25T01:52:47.474Z,42.27
2019-01-25T01:55:16.003Z,43.52
2019-01-25T01:57:44.674Z,46.85
2019-01-25T02:00:16.482Z,47.43
2019-01-25T02:02:44.963Z,55.63
2019-01-25T02:05:13.563Z,52.67
2019-01-25T02:07:42.083Z,47.85
2019-01-25T02:10:16.067Z,58.38
2019-01-25T02:12:44.584Z,50.12
2019-01-25T02:15:15.906Z,53.23
2019-01-25T02:17:44.506Z,45.95
2019-01-25T02:20:24.433Z,41.05
2019-01-25T02:22:53.199Z,50.52
2019-01-25T02:25:21.626Z,40.65
2019-01-25T02:27:50.041Z,42.98
2019-01-25T02:30:20.617Z,39.92
2019-01-25T02:32:49.138Z,42.27
2019-01-25T02:35:17.692Z,43.00
2019-01-25T02:37:46.185Z,39.20
2019-01-25T02:40:20.020Z,37.28
2019-01-25T02:42:48.664Z,37.05
2019-01-25T02:45:17.193Z,32.93
2019-01-25T02:47:45.687Z,34.33
2019-01-25T02:50:16.250Z,35.20
2019-01-25T02:52:44.673Z,34.38
2019-01-25T02:55:14.881Z,33.67
2019-01-25T02:57:43.515Z,28.42
2019-01-25T03:00:22.611Z,26.15
2019-01-25T03:03:12.159Z,29.23
2019-01-25T03:05:40.843Z,32.93
2019-01-25T03:08:09.660Z,24.70
2019-01-25T03:10:38.141Z,28.57
2019-01-25T03:13:06.884Z,29.20
2019-01-25T03:15:35.568Z,25.95
2019-01-25T03:18:04.724Z,25.40
2019-01-25T03:20:33.145Z,31.05
2019-01-25T03:23:01.574Z,24.92
2019-01-25T03:25:29.995Z,31.52
2019-01-25T03:27:58.461Z,28.23
2019-01-25T03:30:27.268Z,25.02
2019-01-25T03:32:55.993Z,30.35
2019-01-25T03:35:25.616Z,26.45
2019-01-25T03:37:54.780Z,22.25
2019-01-25T03:40:42.573Z,30.75
2019-01-25T03:43:11.001Z,21.15
2019-01-25T03:45:39.463Z,22.05
2019-01-25T03:48:08.313Z,23.02
2019-01-25T03:50:36.807Z,28.80
2019-01-25T03:53:05.704Z,21.97
2019-01-25T03:55:34.341Z,21.30
2019-01-25T03:58:02.810Z,30.15
2019-01-25T04:00:31.225Z,21.80
2019-01-25T04:02:59.719Z,21.40
2019-01-25T04:05:28.203Z,24.55
2019-01-25T04:07:56.635Z,25.35
2019-01-25T04:10:27.092Z,28.17
2019-01-25T04:12:55.521Z,18.70
2019-01-25T04:15:27.329Z,20.43
2019-01-25T04:17:55.761Z,24.77
2019-01-25T04:20:24.432Z,24.45
2019-01-25T04:22:53.327Z,19.37
2019-01-25T04:25:23.177Z,27.95
2019-01-25T04:27:52.540Z,23.32
2019-01-25T04:30:23.666Z,22.50
2019-01-25T04:32:52.613Z,17.57
2019-01-25T04:35:21.040Z,26.85
2019-01-25T04:37:49.460Z,19.67
2019-01-25T04:40:18.717Z,22.22
2019-01-25T04:42:47.569Z,23.25
2019-01-25T04:45:20.998Z,26.87
2019-01-25T04:47:49.644Z,32.00
2019-01-25T04:50:23.115Z,26.10
2019-01-25T04:52:51.935Z,35.30
2019-01-25T04:55:28.944Z,22.37
2019-01-25T04:58:05.772Z,23.20
2019-01-25T05:00:34.185Z,25.65
2019-01-25T05:03:02.609Z,33.05
2019-01-25T05:05:31.477Z,40.65
2019-01-25T05:08:09.167Z,38.73
2019-01-25T05:10:37.635Z,36.10
2019-01-25T05:13:06.121Z,39.35
2019-01-25T05:15:34.547Z,51.00
2019-01-25T05:18:02.953Z,36.53
2019-01-25T05:20:31.457Z,28.23
2019-01-25T05:23:06.072Z,30.23
2019-01-25T05:25:34.499Z,20.75
2019-01-25T05:28:09.815Z,31.07
2019-01-25T05:30:38.613Z,36.00
2019-01-25T05:33:07.034Z,30.10
2019-01-25T05:35:37.133Z,41.45
2019-01-25T05:38:05.621Z,36.13
2019-01-25T05:40:34.050Z,27.07
2019-01-25T05:43:02.717Z,29.20
2019-01-25T05:45:31.137Z,29.63
2019-01-25T05:47:59.549Z,27.52
2019-01-25T05:50:27.973Z,28.77
2019-01-25T05:52:56.386Z,27.17
2019-01-25T05:55:25.095Z,29.80
2019-01-25T05:58:02.287Z,32.28
2019-01-25T06:00:37.914Z,26.30
2019-01-25T06:03:11.779Z,24.92
2019-01-25T06:05:40.311Z,20.95
2019-01-25T06:08:30.443Z,22.62
2019-01-25T06:11:01.057Z,24.60
2019-01-25T06:13:29.543Z,25.88
2019-01-25T06:15:58.266Z,24.98
2019-01-25T06:18:26.826Z,22.02
2019-01-25T06:20:57.453Z,28.35
2019-01-25T06:23:25.936Z,20.95
2019-01-25T06:25:56.201Z,22.13
2019-01-25T06:28:24.757Z,27.35
2019-01-25T06:30:53.484Z,28.00
2019-01-25T06:33:22.057Z,24.55
2019-01-25T06:35:50.540Z,20.00
2019-01-25T06:38:19.176Z,28.98
2019-01-25T06:40:47.809Z,28.62
2019-01-25T06:43:16.269Z,26.37
2019-01-25T06:45:44.693Z,24.75
2019-01-25T06:48:13.176Z,28.25
2019-01-25T06:50:41.824Z,25.52
2019-01-25T06:53:10.278Z,30.45
2019-01-25T06:55:38.707Z,28.07
2019-01-25T06:58:11.719Z,19.57
2019-01-25T07:00:47.581Z,28.38
2019-01-25T07:03:16.249Z,26.50
2019-01-25T07:05:44.683Z,21.82
2019-01-25T07:08:14.740Z,32.03
2019-01-25T07:10:43.383Z,25.80
2019-01-25T07:13:12.050Z,20.08
2019-01-25T07:15:40.502Z,25.88
2019-01-25T07:18:08.929Z,27.90
2019-01-25T07:20:37.601Z,19.50
2019-01-25T07:23:06.246Z,26.82
2019-01-25T07:25:34.701Z,21.77
2019-01-25T07:28:03.133Z,22.27
2019-01-25T07:30:31.550Z,19.67
2019-01-25T07:32:59.976Z,24.35
2019-01-25T07:35:28.615Z,27.37
2019-01-25T07:37:57.310Z,23.67
2019-01-25T07:40:25.924Z,20.02
2019-01-25T07:42:54.349Z,22.20
2019-01-25T07:45:22.834Z,21.00
2019-01-25T07:47:51.270Z,25.60
2019-01-25T07:50:19.677Z,25.52
2019-01-25T07:52:48.199Z,19.85
2019-01-25T07:55:16.734Z,24.20
2019-01-25T07:57:45.154Z,24.05
2019-01-25T08:00:17.075Z,18.55
2019-01-25T08:02:45.536Z,22.48
2019-01-25T08:05:14.046Z,24.40
2019-01-25T08:07:42.573Z,25.02
2019-01-25T08:10:24.305Z,27.30
2019-01-25T08:12:52.800Z,29.02
2019-01-25T08:15:25.866Z,23.47
2019-01-25T08:17:54.633Z,23.45
2019-01-25T08:20:23.384Z,28.65
2019-01-25T08:22:52.077Z,24.80
2019-01-25T08:25:20.565Z,25.88
2019-01-25T08:27:49.347Z,27.35
2019-01-25T08:30:22.305Z,31.57
2019-01-25T08:32:51.680Z,26.45
2019-01-25T08:35:21.301Z,21.02
2019-01-25T08:37:50.045Z,23.92
2019-01-25T08:40:18.834Z,23.77
2019-01-25T08:42:47.435Z,26.35
2019-01-25T08:45:17.454Z,36.48
2019-01-25T08:47:45.878Z,56.40
2019-01-25T08:50:17.574Z,30.37
2019-01-25T08:52:46.029Z,31.00
2019-01-25T08:55:14.989Z,36.95
2019-01-25T08:57:43.614Z,35.25
2019-01-25T09:00:15.662Z,34.63
2019-01-25T09:02:44.379Z,32.00
2019-01-25T09:05:13.192Z,33.60
2019-01-25T09:07:41.749Z,25.43
2019-01-25T09:10:16.025Z,29.55
2019-01-25T09:12:44.432Z,28.38
2019-01-25T09:15:16.214Z,27.15
2019-01-25T09:17:44.919Z,32.80
2019-01-25T09:20:16.495Z,28.95
2019-01-25T09:22:45.149Z,32.50
2019-01-25T09:25:13.818Z,34.00
2019-01-25T09:27:42.233Z,31.57
2019-01-25T09:30:21.671Z,31.48
2019-01-25T09:32:50.095Z,39.33
2019-01-25T09:35:18.760Z,34.03
2019-01-25T09:37:47.718Z,41.85
2019-01-25T09:40:18.581Z,35.73
2019-01-25T09:42:47.076Z,26.30
2019-01-25T09:45:15.741Z,31.97
2019-01-25T09:47:44.395Z,28.30
2019-01-25T09:50:18.656Z,31.05
2019-01-25T09:52:47.306Z,32.20
2019-01-25T09:55:24.248Z,29.25
2019-01-25T09:57:51.821Z,33.18
2019-01-25T10:00:32.067Z,26.65
2019-01-25T10:03:00.481Z,30.20
2019-01-25T10:05:29.082Z,28.87
2019-01-25T10:07:57.490Z,26.12
2019-01-25T10:10:25.909Z,29.55
2019-01-25T10:12:54.558Z,29.25
2019-01-25T10:15:25.778Z,29.15
2019-01-25T10:17:54.202Z,31.52
2019-01-25T10:20:22.612Z,34.20
2019-01-25T10:22:51.043Z,30.25
2019-01-25T10:25:19.533Z,28.17
2019-01-25T10:27:48.024Z,26.10
2019-01-25T10:30:22.046Z,23.10
2019-01-25T10:32:50.475Z,24.57
2019-01-25T10:35:19.177Z,31.23
2019-01-25T10:37:48.152Z,30.17
2019-01-25T10:40:23.925Z,23.75
2019-01-25T10:42:55.889Z,38.53
2019-01-25T10:45:29.911Z,32.98
2019-01-25T10:47:58.421Z,22.85
2019-01-25T10:50:26.846Z,33.83
2019-01-25T10:52:55.619Z,29.32
2019-01-25T10:55:24.140Z,24.40
2019-01-25T10:57:52.560Z,28.60
2019-01-25T11:00:23.019Z,21.87
2019-01-25T11:02:58.157Z,32.20
2019-01-25T11:05:24.415Z,33.15
2019-01-25T11:07:52.949Z,24.23
2019-01-25T11:10:21.621Z,27.77
2019-01-25T11:12:50.051Z,19.62
2019-01-25T11:15:21.777Z,22.93
2019-01-25T11:17:50.671Z,23.00
2019-01-25T11:20:21.421Z,20.80
2019-01-25T11:22:49.844Z,19.15
2019-01-25T11:25:26.942Z,22.32
2019-01-25T11:27:55.381Z,20.32
2019-01-25T11:30:23.865Z,22.37
2019-01-25T11:32:52.290Z,22.80
2019-01-25T11:35:20.727Z,23.60
2019-01-25T11:37:49.214Z,22.85
2019-01-25T11:40:32.324Z,22.10
2019-01-25T11:43:08.207Z,26.15
2019-01-25T11:45:30.896Z,27.30
2019-01-25T11:47:59.641Z,22.58
2019-01-25T11:50:28.102Z,20.27
2019-01-25T11:52:56.522Z,28.30
2019-01-25T11:55:25.228Z,20.65
2019-01-25T11:57:53.682Z,26.77
2019-01-25T12:00:27.946Z,20.62
2019-01-25T12:02:56.606Z,22.17
2019-01-25T12:05:25.694Z,16.80
2019-01-25T12:07:55.258Z,24.72
2019-01-25T12:10:29.519Z,14.43
2019-01-25T12:12:57.934Z,20.45
2019-01-25T12:15:26.369Z,21.00
2019-01-25T12:17:54.789Z,24.18
2019-01-25T12:20:28.173Z,24.85
2019-01-25T12:22:56.589Z,22.30
2019-01-25T12:25:25.080Z,23.87
2019-01-25T12:27:53.509Z,21.20
2019-01-25T12:30:30.737Z,26.57
2019-01-25T12:32:59.400Z,23.10
2019-01-25T12:35:30.670Z,22.87
2019-01-25T12:37:59.342Z,22.22
2019-01-25T12:40:27.870Z,24.65
2019-01-25T12:42:56.274Z,22.55
2019-01-25T12:45:27.426Z,26.65
2019-01-25T12:47:56.165Z,28.05
2019-01-25T12:50:48.987Z,23.07
2019-01-25T12:53:15.569Z,23.92
2019-01-25T12:55:44.294Z,21.80
2019-01-25T12:58:12.749Z,26.25
2019-01-25T13:00:41.527Z,18.52
2019-01-25T13:03:11.716Z,23.75
2019-01-25T13:05:40.346Z,22.93
2019-01-25T13:08:09.059Z,23.42
2019-01-25T13:10:37.510Z,24.67
2019-01-25T13:13:06.010Z,20.45
2019-01-25T13:15:34.424Z,22.67
2019-01-25T13:18:02.850Z,25.25
2019-01-25T13:20:31.889Z,25.20
2019-01-25T13:23:00.317Z,24.43
2019-01-25T13:25:28.958Z,22.82
2019-01-25T13:27:57.714Z,20.80
2019-01-25T13:30:31.211Z,18.98
2019-01-25T13:33:00.908Z,27.60
2019-01-25T13:35:29.466Z,17.77
2019-01-25T13:37:57.897Z,24.32
2019-01-25T13:40:27.665Z,21.33
2019-01-25T13:42:56.328Z,18.82
2019-01-25T13:45:24.881Z,17.25
2019-01-25T13:47:53.494Z,20.75
2019-01-25T13:50:44.362Z,23.00
2019-01-25T13:53:12.786Z,17.45
2019-01-25T13:55:42.765Z,18.30
2019-01-25T13:58:15.417Z,19.62
2019-01-25T14:00:43.883Z,21.15
2019-01-25T14:03:12.323Z,20.75
2019-01-25T14:05:40.735Z,17.82
2019-01-25T14:08:09.157Z,17.50
2019-01-25T14:10:37.805Z,19.40
2019-01-25T14:13:06.413Z,23.87
2019-01-25T14:15:34.901Z,23.47
2019-01-25T14:18:03.339Z,16.70
2019-01-25T14:20:34.797Z,21.37
2019-01-25T14:23:03.546Z,23.27
2019-01-25T14:25:32.010Z,17.17
2019-01-25T14:28:00.470Z,14.83
2019-01-25T14:30:32.031Z,22.70
2019-01-25T14:33:00.493Z,15.23
2019-01-25T14:35:29.038Z,16.12
2019-01-25T14:37:57.534Z,16.32
2019-01-25T14:40:26.381Z,17.20
2019-01-25T14:42:54.809Z,21.60
2019-01-25T14:45:23.540Z,19.80
2019-01-25T14:47:52.067Z,17.87
2019-01-25T14:50:23.212Z,18.35
2019-01-25T14:52:51.894Z,20.08
2019-01-25T14:55:20.324Z,20.08
2019-01-25T14:57:48.732Z,17.87
2019-01-25T15:00:17.187Z,14.58
2019-01-25T15:02:45.724Z,16.12
2019-01-25T15:05:16.468Z,18.27
2019-01-25T15:07:45.152Z,11.25
2019-01-25T15:10:18.903Z,9.15
2019-01-25T15:12:48.003Z,14.35
2019-01-25T15:15:16.513Z,15.08
2019-01-25T15:17:44.927Z,12.15
2019-01-25T15:20:16.664Z,10.15
2019-01-25T15:22:45.082Z,8.93
2019-01-25T15:25:13.916Z,9.45
2019-01-25T15:27:42.445Z,10.80
2019-01-25T15:30:13.947Z,11.90
2019-01-25T15:32:42.733Z,10.25
2019-01-25T15:35:13.202Z,9.53
2019-01-25T15:37:41.619Z,11.35
2019-01-25T15:40:12.513Z,9.55
2019-01-25T15:42:41.002Z,10.38
2019-01-25T15:45:14.922Z,15.20
2019-01-25T15:47:43.334Z,8.60
2019-01-25T15:50:15.016Z,13.88
2019-01-25T15:52:43.498Z,17.17
2019-01-25T15:55:12.136Z,13.85
2019-01-25T15:57:40.853Z,12.95
2019-01-25T16:00:15.350Z,13.05
2019-01-25T16:02:43.834Z,12.50
2019-01-25T16:05:14.510Z,13.22
2019-01-25T16:07:43.000Z,15.55
2019-01-25T16:10:19.725Z,15.60
2019-01-25T16:12:48.398Z,18.67
2019-01-25T16:15:21.588Z,11.88
2019-01-25T16:17:50.229Z,15.35
2019-01-25T16:20:19.295Z,14.80
2019-01-25T16:22:49.206Z,13.80
2019-01-25T16:25:23.156Z,23.12
2019-01-25T16:27:51.574Z,13.32
2019-01-25T16:30:23.301Z,19.57
2019-01-25T16:32:51.882Z,16.17
2019-01-25T16:35:20.370Z,19.10
2019-01-25T16:37:48.810Z,21.23
2019-01-25T16:40:20.190Z,21.20
2019-01-25T16:42:48.751Z,17.90
2019-01-25T16:45:19.927Z,32.85
2019-01-25T16:47:48.349Z,18.73
2019-01-25T16:50:23.655Z,20.60
2019-01-25T16:52:47.679Z,44.75
2019-01-25T16:55:16.542Z,33.83
2019-01-25T16:57:46.322Z,23.67
2019-01-25T17:00:26.437Z,27.93
2019-01-25T17:02:54.986Z,24.95
2019-01-25T17:05:23.715Z,16.73
2019-01-25T17:07:52.263Z,18.57
2019-01-25T17:10:21.162Z,18.15
2019-01-25T17:12:49.999Z,19.37
2019-01-25T17:15:18.828Z,17.92
2019-01-25T17:17:48.731Z,21.27
2019-01-25T17:20:26.530Z,18.80
2019-01-25T17:22:54.966Z,16.10
2019-01-25T17:25:23.440Z,19.75
2019-01-25T17:27:52.035Z,17.95
2019-01-25T17:30:25.176Z,23.18
2019-01-25T17:32:54.958Z,14.18
2019-01-25T17:35:24.011Z,17.10
2019-01-25T17:37:52.955Z,14.60
2019-01-25T17:40:28.750Z,15.83
2019-01-25T17:42:57.539Z,15.38
2019-01-25T17:45:26.445Z,14.93
2019-01-25T17:47:55.255Z,13.28
2019-01-25T17:50:24.065Z,18.48
2019-01-25T17:52:54.065Z,16.90
2019-01-25T17:55:22.940Z,17.00
2019-01-25T17:57:51.871Z,20.02
2019-01-25T18:00:29.638Z,14.55
2019-01-25T18:02:58.536Z,11.83
2019-01-25T18:05:27.303Z,15.90
2019-01-25T18:07:56.229Z,9.28
2019-01-25T18:10:25.940Z,14.38
2019-01-25T18:12:54.846Z,14.83
2019-01-25T18:15:23.674Z,10.93
2019-01-25T18:17:52.531Z,12.18
2019-01-25T18:20:23.078Z,17.52
2019-01-25T18:22:52.087Z,13.38
2019-01-25T18:25:23.888Z,13.83
2019-01-25T18:27:55.670Z,16.37
2019-01-25T18:30:30.330Z,11.53
2019-01-25T18:32:59.232Z,12.60
2019-01-25T18:35:28.137Z,23.70
2019-01-25T18:37:57.013Z,15.55
2019-01-25T18:40:26.203Z,9.88
2019-01-25T18:42:55.110Z,20.52
2019-01-25T18:45:23.933Z,17.02
2019-01-25T18:47:52.676Z,15.98
2019-01-25T18:50:21.441Z,13.00
2019-01-25T18:52:49.913Z,10.78
2019-01-25T18:55:21.604Z,17.82
2019-01-25T18:57:50.040Z,13.60
2019-01-25T19:00:20.489Z,11.68
2019-01-25T19:02:49.151Z,16.67
2019-01-25T19:05:18.035Z,13.93
2019-01-25T19:07:46.492Z,13.70
2019-01-25T19:10:27.080Z,15.20
2019-01-25T19:12:55.740Z,16.50
2019-01-25T19:15:27.317Z,18.52
2019-01-25T19:17:55.869Z,16.17
2019-01-25T19:20:24.293Z,15.48
2019-01-25T19:22:52.726Z,16.23
2019-01-25T19:25:21.284Z,14.58
2019-01-25T19:27:50.031Z,16.00
2019-01-25T19:30:36.713Z,10.18
2019-01-25T19:33:05.628Z,16.12
2019-01-25T19:35:34.093Z,19.52
2019-01-25T19:38:02.874Z,14.60
2019-01-25T19:40:33.511Z,12.60
2019-01-25T19:43:01.995Z,12.20
2019-01-25T19:45:30.493Z,15.45
2019-01-25T19:47:58.972Z,16.70
2019-01-25T19:50:27.466Z,17.95
2019-01-25T19:52:56.179Z,14.20
2019-01-25T19:55:30.071Z,17.82
2019-01-25T19:58:00.725Z,12.37
2019-01-25T20:00:40.752Z,15.70
2019-01-25T20:03:09.406Z,18.67
2019-01-25T20:05:38.073Z,13.35
2019-01-25T20:08:06.711Z,17.62
2019-01-25T20:10:35.233Z,10.95
2019-01-25T20:13:04.027Z,20.00
2019-01-25T20:15:32.669Z,16.97
2019-01-25T20:18:01.078Z,14.33
2019-01-25T20:20:34.837Z,21.33
2019-01-25T20:23:03.257Z,10.28
2019-01-25T20:25:31.833Z,18.07
2019-01-25T20:28:00.317Z,17.52
2019-01-25T20:30:30.880Z,16.30
2019-01-25T20:33:00.313Z,19.92
2019-01-25T20:35:30.881Z,17.48
2019-01-25T20:37:59.297Z,21.25
2019-01-25T20:40:28.188Z,16.77
2019-01-25T20:42:56.910Z,14.10
2019-01-25T20:45:30.825Z,16.30
2019-01-25T20:47:59.246Z,20.05
2019-01-25T20:50:29.605Z,16.97
2019-01-25T20:52:58.089Z,12.33
2019-01-25T20:55:26.821Z,16.67
2019-01-25T20:57:56.182Z,13.00
2019-01-25T21:00:35.770Z,19.27
2019-01-25T21:03:05.313Z,16.65
2019-01-25T21:05:33.752Z,17.60
2019-01-25T21:08:02.413Z,13.93
2019-01-25T21:10:31.115Z,16.07
2019-01-25T21:12:59.567Z,14.20
2019-01-25T21:15:35.006Z,20.20
2019-01-25T21:17:59.338Z,24.12
2019-01-25T21:20:30.881Z,20.15
2019-01-25T21:22:59.520Z,16.15
2019-01-25T21:25:28.057Z,13.15
2019-01-25T21:27:56.536Z,18.62
2019-01-25T21:30:27.924Z,13.83
2019-01-25T21:32:56.584Z,17.67
2019-01-25T21:35:25.138Z,19.60
2019-01-25T21:37:53.556Z,17.32
2019-01-25T21:40:24.932Z,13.13
2019-01-25T21:42:53.576Z,14.78
2019-01-25T21:45:24.169Z,17.12
2019-01-25T21:47:52.656Z,12.45
2019-01-25T21:50:26.668Z,17.55
2019-01-25T21:52:55.181Z,19.65
2019-01-25T21:55:23.590Z,17.52
2019-01-25T21:57:52.021Z,15.18
2019-01-25T22:00:45.603Z,18.57
2019-01-25T22:03:14.021Z,14.40
2019-01-25T22:05:42.808Z,18.23
2019-01-25T22:08:11.619Z,16.85
2019-01-25T22:10:43.937Z,16.37
2019-01-25T22:13:12.970Z,13.95
2019-01-25T22:15:41.678Z,17.73
2019-01-25T22:18:10.167Z,21.10
2019-01-25T22:20:38.580Z,24.77
2019-01-25T22:23:07.519Z,17.67
2019-01-25T22:25:35.976Z,18.82
2019-01-25T22:28:04.403Z,22.00
2019-01-25T22:30:33.885Z,20.75
2019-01-25T22:33:02.589Z,19.60
2019-01-25T22:35:30.997Z,22.20
2019-01-25T22:37:59.414Z,24.00
2019-01-25T22:40:29.576Z,23.15
2019-01-25T22:42:58.062Z,19.17
2019-01-25T22:45:28.413Z,23.27
2019-01-25T22:47:57.878Z,22.42
2019-01-25T22:50:30.974Z,21.00
2019-01-25T22:52:59.665Z,18.92
2019-01-25T22:55:28.849Z,19.48
2019-01-25T22:57:57.758Z,15.85
2019-01-25T23:00:49.939Z,15.98
2019-01-25T23:03:30.661Z,18.25
2019-01-25T23:06:18.930Z,14.78
2019-01-25T23:08:47.601Z,18.87
2019-01-25T23:11:16.085Z,19.92
2019-01-25T23:13:44.497Z,13.98
2019-01-25T23:16:12.913Z,17.17
2019-01-25T23:18:41.585Z,16.62
2019-01-25T23:21:10.064Z,25.30
2019-01-25T23:23:38.485Z,16.70
2019-01-25T23:26:06.900Z,16.30
2019-01-25T23:28:35.532Z,15.93
2019-01-25T23:31:04.053Z,18.45
2019-01-25T23:33:32.726Z,16.00
2019-01-25T23:36:01.168Z,17.62
2019-01-25T23:38:29.879Z,16.73
2019-01-25T23:40:58.286Z,13.00
2019-01-25T23:43:26.949Z,14.20
2019-01-25T23:45:55.357Z,11.53
2019-01-25T23:48:23.996Z,16.60
2019-01-25T23:50:52.445Z,13.60
2019-01-25T23:53:21.131Z,15.13
2019-01-25T23:55:49.789Z,12.10
2019-01-25T23:58:18.201Z,13.20
